createdAt,value
2018-02-03T00:01:23.700Z,99850
2018-02-03T00:03:49.768Z,99839
2018-02-03T00:06:15.840Z,99835
2018-02-03T00:08:41.937Z,99845
2018-02-03T00:11:08.018Z,99841
2018-02-03T00:13:34.097Z,99846
2018-02-03T00:16:00.181Z,99844
2018-02-03T00:18:26.269Z,99831
2018-02-03T00:20:52.359Z,99829
2018-02-03T00:23:18.446Z,99841
2018-02-03T00:25:44.673Z,99838
2018-02-03T00:28:10.753Z,99851
2018-02-03T00:30:36.845Z,99846
2018-02-03T00:33:02.925Z,99849
2018-02-03T00:35:29.007Z,99848
2018-02-03T00:37:55.098Z,99855
2018-02-03T00:40:21.174Z,99853
2018-02-03T00:42:47.241Z,99849
2018-02-03T00:45:13.350Z,99852
2018-02-03T00:47:40.172Z,99851
2018-02-03T00:50:06.251Z,99858
2018-02-03T00:52:32.388Z,99851
2018-02-03T00:54:58.452Z,99856
2018-02-03T00:57:24.541Z,99855
2018-02-03T00:59:50.620Z,99861
2018-02-03T01:02:17.454Z,99865
2018-02-03T01:04:43.541Z,99864
2018-02-03T01:07:09.617Z,99866
2018-02-03T01:09:35.689Z,99860
2018-02-03T01:12:01.762Z,99865
2018-02-03T01:14:28.577Z,99870
2018-02-03T01:16:54.669Z,99857
2018-02-03T01:19:20.748Z,99862
2018-02-03T01:21:47.041Z,99870
2018-02-03T01:24:13.157Z,99869
2018-02-03T01:26:39.205Z,99873
2018-02-03T01:29:05.294Z,99869
2018-02-03T01:31:31.373Z,99874
2018-02-03T01:33:57.456Z,99880
2018-02-03T01:36:23.544Z,99873
2018-02-03T01:38:50.368Z,99871
2018-02-03T01:41:17.226Z,99874
2018-02-03T01:43:44.054Z,99884
2018-02-03T01:46:10.129Z,99885
2018-02-03T01:48:36.209Z,99883
2018-02-03T01:51:02.285Z,99883
2018-02-03T01:53:28.406Z,99879
2018-02-03T01:55:54.481Z,99877
2018-02-03T01:58:20.562Z,99870
2018-02-03T02:00:46.633Z,99880
2018-02-03T02:03:12.709Z,99870
2018-02-03T02:05:38.794Z,99880
2018-02-03T02:08:04.881Z,99877
2018-02-03T02:10:30.961Z,99877
2018-02-03T02:12:57.048Z,99869
2018-02-03T02:15:23.118Z,99872
2018-02-03T02:17:49.189Z,99886
2018-02-03T02:20:15.281Z,99877
2018-02-03T02:22:41.348Z,99869
2018-02-03T02:25:07.433Z,99878
2018-02-03T02:27:33.838Z,99878
2018-02-03T02:29:59.917Z,99876
2018-02-03T02:32:26.013Z,99880
2018-02-03T02:34:52.089Z,99884
2018-02-03T02:37:18.167Z,99886
2018-02-03T02:39:44.253Z,99886
2018-02-03T02:42:10.353Z,99882
2018-02-03T02:44:36.438Z,99888
2018-02-03T02:47:02.513Z,99890
2018-02-03T02:49:28.597Z,99889
2018-02-03T02:51:54.918Z,99890
2018-02-03T02:54:20.994Z,99884
2018-02-03T02:56:47.070Z,99850
2018-02-03T02:59:13.141Z,99894
2018-02-03T03:01:39.234Z,99889
2018-02-03T03:04:05.358Z,99896
2018-02-03T03:06:31.460Z,99891
2018-02-03T03:08:57.533Z,99895
2018-02-03T03:11:23.613Z,99904
2018-02-03T03:13:49.693Z,99900
2018-02-03T03:16:16.510Z,99903
2018-02-03T03:18:42.576Z,99872
2018-02-03T03:21:08.789Z,99905
2018-02-03T03:23:34.857Z,99906
2018-02-03T03:26:00.940Z,99908
2018-02-03T03:28:27.013Z,99903
2018-02-03T03:30:53.110Z,99900
2018-02-03T03:33:19.205Z,99892
2018-02-03T03:35:45.281Z,99898
2018-02-03T03:38:11.348Z,99895
2018-02-03T03:40:38.912Z,99895
2018-02-03T03:43:06.480Z,99888
2018-02-03T03:45:32.562Z,99894
2018-02-03T03:47:58.633Z,99898
2018-02-03T03:50:24.799Z,99897
2018-02-03T03:52:51.211Z,99909
2018-02-03T03:55:18.054Z,99903
2018-02-03T03:57:44.881Z,99900
2018-02-03T04:00:10.960Z,99909
2018-02-03T04:02:37.037Z,99902
2018-02-03T04:05:03.126Z,99896
2018-02-03T04:07:29.233Z,99896
2018-02-03T04:09:55.298Z,99900
2018-02-03T04:12:21.369Z,99909
2018-02-03T04:14:47.445Z,99902
2018-02-03T04:17:13.557Z,99903
2018-02-03T04:19:39.633Z,99901
2018-02-03T04:22:05.710Z,99899
2018-02-03T04:24:31.793Z,99910
2018-02-03T04:26:57.892Z,99902
2018-02-03T04:29:24.697Z,99904
2018-02-03T04:31:50.777Z,99894
2018-02-03T04:34:16.846Z,99899
2018-02-03T04:36:42.934Z,99911
2018-02-03T04:39:09.001Z,99903
2018-02-03T04:41:35.080Z,99905
2018-02-03T04:44:01.173Z,99906
2018-02-03T04:46:27.285Z,99905
2018-02-03T04:48:53.371Z,99909
2018-02-03T04:51:19.490Z,99917
2018-02-03T04:53:45.989Z,99911
2018-02-03T04:56:12.057Z,99912
2018-02-03T04:58:38.138Z,99909
2018-02-03T05:01:04.229Z,99915
2018-02-03T05:03:30.311Z,99917
2018-02-03T05:05:56.401Z,99918
2018-02-03T05:08:22.477Z,99917
2018-02-03T05:10:48.622Z,99907
2018-02-03T05:13:14.676Z,99914
2018-02-03T05:15:40.758Z,99914
2018-02-03T05:18:06.833Z,99921
2018-02-03T05:20:32.914Z,99915
2018-02-03T05:22:59.001Z,99915
2018-02-03T05:25:25.827Z,99914
2018-02-03T05:27:51.917Z,99919
2018-02-03T05:30:24.821Z,99921
2018-02-03T05:32:52.393Z,99917
2018-02-03T05:35:18.483Z,99910
2018-02-03T05:37:44.585Z,99911
2018-02-03T05:40:10.662Z,99902
2018-02-03T05:42:36.786Z,99906
2018-02-03T05:45:02.889Z,99907
2018-02-03T05:47:28.979Z,99909
2018-02-03T05:49:55.109Z,99904
2018-02-03T05:52:21.178Z,99899
2018-02-03T05:54:47.246Z,99904
2018-02-03T05:57:13.569Z,99902
2018-02-03T05:59:39.642Z,99906
2018-02-03T06:02:05.721Z,99915
2018-02-03T06:04:32.543Z,99917
2018-02-03T06:06:58.622Z,99910
2018-02-03T06:09:24.699Z,99907
2018-02-03T06:11:51.522Z,99909
2018-02-03T06:14:17.597Z,99914
2018-02-03T06:16:43.681Z,99911
2018-02-03T06:19:09.773Z,99907
2018-02-03T06:21:36.385Z,99915
2018-02-03T06:24:02.457Z,99912
2018-02-03T06:26:28.560Z,99920
2018-02-03T06:28:54.638Z,99918
2018-02-03T06:31:21.460Z,99916
2018-02-03T06:33:47.548Z,99911
2018-02-03T06:36:13.620Z,99912
2018-02-03T06:38:39.685Z,99919
2018-02-03T06:41:05.777Z,99914
2018-02-03T06:43:31.885Z,99909
2018-02-03T06:45:57.969Z,99915
2018-02-03T06:48:24.045Z,99916
2018-02-03T06:50:51.309Z,99905
2018-02-03T06:53:18.138Z,99913
2018-02-03T06:55:44.222Z,99914
2018-02-03T06:58:10.310Z,99922
2018-02-03T07:00:36.385Z,99922
2018-02-03T07:03:02.465Z,99920
2018-02-03T07:05:28.589Z,99928
2018-02-03T07:07:54.661Z,99923
2018-02-03T07:10:20.765Z,99920
2018-02-03T07:12:46.844Z,99926
2018-02-03T07:15:12.947Z,99929
2018-02-03T07:17:39.040Z,99935
2018-02-03T07:20:05.125Z,99929
2018-02-03T07:22:31.199Z,99934
2018-02-03T07:24:57.299Z,99934
2018-02-03T07:27:23.701Z,99931
2018-02-03T07:29:49.790Z,99928
2018-02-03T07:32:15.866Z,99943
2018-02-03T07:34:41.929Z,99939
2018-02-03T07:37:08.023Z,99940
2018-02-03T07:39:34.089Z,99939
2018-02-03T07:42:00.158Z,99944
2018-02-03T07:44:26.254Z,99944
2018-02-03T07:46:52.382Z,99945
2018-02-03T07:49:18.458Z,99945
2018-02-03T07:51:44.534Z,99944
2018-02-03T07:54:10.801Z,99942
2018-02-03T07:56:37.025Z,99943
2018-02-03T07:59:03.131Z,99949
2018-02-03T08:01:29.958Z,99955
2018-02-03T08:03:56.034Z,99955
2018-02-03T08:06:22.153Z,99951
2018-02-03T08:08:48.265Z,99959
2018-02-03T08:11:14.354Z,99961
2018-02-03T08:13:40.387Z,99960
2018-02-03T08:16:06.508Z,99949
2018-02-03T08:18:33.351Z,99951
2018-02-03T08:21:00.945Z,99950
2018-02-03T08:23:27.063Z,99948
2018-02-03T08:25:53.109Z,99952
2018-02-03T08:28:19.195Z,99958
2018-02-03T08:30:45.674Z,99948
2018-02-03T08:33:11.725Z,99950
2018-02-03T08:35:37.797Z,99964
2018-02-03T08:38:04.625Z,99952
2018-02-03T08:40:30.757Z,99948
2018-02-03T08:42:56.838Z,99949
2018-02-03T08:45:22.929Z,99953
2018-02-03T08:47:49.009Z,99947
2018-02-03T08:50:15.098Z,99961
2018-02-03T08:52:41.205Z,99957
2018-02-03T08:55:07.281Z,99957
2018-02-03T08:57:33.345Z,99955
2018-02-03T09:00:00.183Z,99963
2018-02-03T09:02:26.997Z,99952
2018-02-03T09:04:53.449Z,99947
2018-02-03T09:07:19.541Z,99952
2018-02-03T09:09:45.609Z,99945
2018-02-03T09:12:11.742Z,99938
2018-02-03T09:14:38.567Z,99938
2018-02-03T09:17:05.381Z,99926
2018-02-03T09:19:31.461Z,99938
2018-02-03T09:21:57.973Z,99941
2018-02-03T09:24:24.788Z,99938
2018-02-03T09:26:50.871Z,99945
2018-02-03T09:29:16.941Z,99943
2018-02-03T09:31:43.020Z,99942
2018-02-03T09:34:09.114Z,99945
2018-02-03T09:36:35.926Z,99955
2018-02-03T09:39:01.998Z,99954
2018-02-03T09:41:28.817Z,99953
2018-02-03T09:43:55.633Z,99953
2018-02-03T09:46:21.697Z,99951
2018-02-03T09:48:47.765Z,99947
2018-02-03T09:51:14.674Z,99952
2018-02-03T09:53:40.770Z,99943
2018-02-03T09:56:06.850Z,99953
2018-02-03T09:58:32.948Z,99958
2018-02-03T10:00:59.790Z,99956
2018-02-03T10:03:26.606Z,99962
2018-02-03T10:05:52.681Z,99967
2018-02-03T10:08:18.753Z,99958
2018-02-03T10:10:44.822Z,99962
2018-02-03T10:13:10.913Z,99957
2018-02-03T10:15:37.745Z,99955
2018-02-03T10:18:03.838Z,99950
2018-02-03T10:20:29.903Z,99955
2018-02-03T10:22:55.993Z,99956
2018-02-03T10:25:22.066Z,99953
2018-02-03T10:27:48.877Z,99956
2018-02-03T10:30:14.960Z,99962
2018-02-03T10:32:41.029Z,99953
2018-02-03T10:35:07.126Z,99949
2018-02-03T10:37:33.194Z,99948
2018-02-03T10:39:59.268Z,99945
2018-02-03T10:42:25.368Z,99957
2018-02-03T10:44:51.442Z,99960
2018-02-03T10:47:17.532Z,99962
2018-02-03T10:49:43.597Z,99953
2018-02-03T10:52:09.681Z,99958
2018-02-03T10:54:36.190Z,99948
2018-02-03T10:57:03.001Z,99953
2018-02-03T10:59:29.065Z,99963
2018-02-03T11:01:55.893Z,99956
2018-02-03T11:04:23.016Z,99956
2018-02-03T11:06:49.080Z,99968
2018-02-03T11:09:15.913Z,99961
2018-02-03T11:11:42.737Z,99950
2018-02-03T11:14:08.810Z,99946
2018-02-03T11:16:34.889Z,99950
2018-02-03T11:19:00.965Z,99950
2018-02-03T11:21:27.369Z,99960
2018-02-03T11:23:53.442Z,99943
2018-02-03T11:26:19.555Z,99945
2018-02-03T11:28:45.605Z,99940
2018-02-03T11:31:11.697Z,99936
2018-02-03T11:33:37.780Z,99953
2018-02-03T11:36:03.877Z,99954
2018-02-03T11:38:29.958Z,99961
2018-02-03T11:40:56.045Z,99961
2018-02-03T11:43:22.130Z,99965
2018-02-03T11:45:48.209Z,99994
2018-02-03T11:48:15.042Z,99954
2018-02-03T11:50:41.883Z,99962
2018-02-03T11:53:07.957Z,99950
2018-02-03T11:55:34.026Z,99964
2018-02-03T11:58:00.989Z,99965
2018-02-03T12:00:27.810Z,99951
2018-02-03T12:02:53.882Z,99960
2018-02-03T12:05:19.949Z,99961
2018-02-03T12:07:46.017Z,99957
2018-02-03T12:10:12.117Z,99963
2018-02-03T12:12:38.197Z,99962
2018-02-03T12:15:04.589Z,99966
2018-02-03T12:17:31.433Z,99964
2018-02-03T12:19:58.254Z,99970
2018-02-03T12:22:24.330Z,99965
2018-02-03T12:24:50.496Z,99946
2018-02-03T12:27:16.586Z,99963
2018-02-03T12:29:43.464Z,99960
2018-02-03T12:32:10.034Z,99929
2018-02-03T12:34:36.854Z,99954
2018-02-03T12:37:02.934Z,99959
2018-02-03T12:39:29.209Z,99957
2018-02-03T12:41:55.315Z,99960
2018-02-03T12:44:21.386Z,99960
2018-02-03T12:46:48.202Z,99952
2018-02-03T12:49:14.309Z,99955
2018-02-03T12:51:40.398Z,99956
2018-02-03T12:54:06.500Z,99953
2018-02-03T12:56:33.344Z,99951
2018-02-03T12:58:59.706Z,99957
2018-02-03T13:01:25.808Z,99961
2018-02-03T13:03:51.921Z,99966
2018-02-03T13:06:18.017Z,99965
2018-02-03T13:08:44.381Z,99964
2018-02-03T13:11:11.201Z,99958
2018-02-03T13:13:37.282Z,99964
2018-02-03T13:16:03.365Z,99962
2018-02-03T13:18:29.448Z,99956
2018-02-03T13:20:55.521Z,99966
2018-02-03T13:23:21.594Z,99962
2018-02-03T13:25:47.685Z,99957
2018-02-03T13:28:13.770Z,99955
2018-02-03T13:30:39.844Z,99960
2018-02-03T13:33:06.906Z,99967
2018-02-03T13:35:32.993Z,99968
2018-02-03T13:37:59.061Z,99966
2018-02-03T13:40:25.170Z,99963
2018-02-03T13:42:51.245Z,99968
2018-02-03T13:45:17.314Z,99968
2018-02-03T13:47:44.151Z,99965
2018-02-03T13:50:10.232Z,99966
2018-02-03T13:52:36.553Z,99966
2018-02-03T13:55:02.639Z,99970
2018-02-03T13:57:28.713Z,99970
2018-02-03T13:59:54.796Z,99960
2018-02-03T14:02:20.874Z,99963
2018-02-03T14:04:46.945Z,99965
2018-02-03T14:07:13.054Z,99967
2018-02-03T14:09:39.897Z,99971
2018-02-03T14:12:06.705Z,99976
2018-02-03T14:14:32.797Z,99972
2018-02-03T14:16:58.889Z,99980
2018-02-03T14:19:25.723Z,99977
2018-02-03T14:21:51.793Z,99983
2018-02-03T14:24:23.919Z,99986
2018-02-03T14:26:50.826Z,99987
2018-02-03T14:29:16.905Z,99985
2018-02-03T14:31:42.982Z,99980
2018-02-03T14:34:09.062Z,99982
2018-02-03T14:36:35.157Z,99984
2018-02-03T14:39:01.977Z,99993
2018-02-03T14:41:28.153Z,99993
2018-02-03T14:43:54.225Z,99990
2018-02-03T14:46:20.315Z,99985
2018-02-03T14:48:46.413Z,99994
2018-02-03T14:51:12.490Z,99996
2018-02-03T14:53:38.566Z,99985
2018-02-03T14:56:04.652Z,99994
2018-02-03T14:58:30.731Z,100004
2018-02-03T15:00:56.822Z,99992
2018-02-03T15:03:22.893Z,99990
2018-02-03T15:05:48.973Z,99996
2018-02-03T15:08:15.069Z,99990
2018-02-03T15:10:41.137Z,99990
2018-02-03T15:13:07.962Z,99995
2018-02-03T15:15:34.026Z,100002
2018-02-03T15:18:00.100Z,99999
2018-02-03T15:20:26.193Z,99990
2018-02-03T15:22:52.314Z,99985
2018-02-03T15:25:18.393Z,99998
2018-02-03T15:27:44.534Z,99993
2018-02-03T15:30:10.573Z,99998
2018-02-03T15:32:36.650Z,100005
2018-02-03T15:35:02.754Z,100002
2018-02-03T15:37:28.821Z,99998
2018-02-03T15:39:55.156Z,99995
2018-02-03T15:42:21.990Z,99998
2018-02-03T15:44:48.066Z,100004
2018-02-03T15:47:14.139Z,100003
2018-02-03T15:49:40.226Z,100012
2018-02-03T15:52:07.117Z,100018
2018-02-03T15:54:33.189Z,100025
2018-02-03T15:56:59.273Z,100042
2018-02-03T15:59:26.530Z,100039
2018-02-03T16:01:53.338Z,100041
2018-02-03T16:04:19.409Z,100042
2018-02-03T16:06:45.486Z,100031
2018-02-03T16:09:11.563Z,100039
2018-02-03T16:11:37.651Z,100036
2018-02-03T16:14:03.736Z,100047
2018-02-03T16:16:29.801Z,100048
2018-02-03T16:18:55.897Z,100052
2018-02-03T16:21:21.991Z,100055
2018-02-03T16:23:48.080Z,100052
2018-02-03T16:26:14.305Z,100051
2018-02-03T16:28:40.404Z,100054
2018-02-03T16:31:06.483Z,100054
2018-02-03T16:33:33.297Z,100049
2018-02-03T16:35:59.386Z,100056
2018-02-03T16:38:25.472Z,100059
2018-02-03T16:40:52.298Z,100069
2018-02-03T16:43:19.123Z,100060
2018-02-03T16:45:45.189Z,100070
2018-02-03T16:48:11.261Z,100065
2018-02-03T16:50:37.385Z,100069
2018-02-03T16:53:03.517Z,100078
2018-02-03T16:55:29.589Z,100069
2018-02-03T16:57:55.673Z,100076
2018-02-03T17:00:21.746Z,100080
2018-02-03T17:02:47.850Z,100079
2018-02-03T17:05:14.673Z,100078
2018-02-03T17:07:41.011Z,100084
2018-02-03T17:10:07.070Z,100082
2018-02-03T17:12:33.138Z,100091
2018-02-03T17:15:10.820Z,100094
2018-02-03T17:17:36.892Z,100091
2018-02-03T17:20:03.702Z,100091
2018-02-03T17:22:29.770Z,100094
2018-02-03T17:24:55.869Z,100102
2018-02-03T17:27:22.109Z,100106
2018-02-03T17:29:51.862Z,100096
2018-02-03T17:32:17.933Z,100091
2018-02-03T17:34:44.005Z,100096
2018-02-03T17:37:16.271Z,100105
2018-02-03T17:39:42.311Z,100099
2018-02-03T17:42:08.378Z,100100
2018-02-03T17:44:34.473Z,100108
2018-02-03T17:47:08.380Z,100108
2018-02-03T17:49:34.458Z,100115
2018-02-03T17:52:01.326Z,100111
2018-02-03T17:54:28.797Z,100106
2018-02-03T17:57:01.077Z,100123
2018-02-03T17:59:27.137Z,100115
2018-02-03T18:01:53.222Z,100147
2018-02-03T18:04:19.289Z,100126
2018-02-03T18:06:51.597Z,100132
2018-02-03T18:09:17.674Z,100137
2018-02-03T18:11:43.790Z,100137
2018-02-03T18:14:09.866Z,100136
2018-02-03T18:16:36.195Z,100140
2018-02-03T18:19:02.340Z,100141
2018-02-03T18:21:28.423Z,100137
2018-02-03T18:23:55.237Z,100149
2018-02-03T18:26:21.318Z,100143
2018-02-03T18:28:47.406Z,100149
2018-02-03T18:31:13.497Z,100153
2018-02-03T18:33:39.577Z,100155
2018-02-03T18:36:06.397Z,100152
2018-02-03T18:38:32.488Z,100143
2018-02-03T18:40:58.565Z,100147
2018-02-03T18:43:24.653Z,100159
2018-02-03T18:45:50.738Z,100150
2018-02-03T18:48:16.809Z,100148
2018-02-03T18:50:42.878Z,100152
2018-02-03T18:53:09.068Z,100155
2018-02-03T18:55:35.147Z,100153
2018-02-03T18:58:01.226Z,100149
2018-02-03T19:00:27.309Z,100147
2018-02-03T19:02:53.411Z,100153
2018-02-03T19:05:19.493Z,100157
2018-02-03T19:07:45.569Z,100161
2018-02-03T19:10:11.661Z,100159
2018-02-03T19:12:38.473Z,100164
2018-02-03T19:15:04.949Z,100171
2018-02-03T19:17:31.049Z,100166
2018-02-03T19:19:57.135Z,100167
2018-02-03T19:22:23.221Z,100170
2018-02-03T19:24:49.549Z,100171
2018-02-03T19:27:16.357Z,100187
2018-02-03T19:29:42.433Z,100196
2018-02-03T19:32:08.505Z,100194
2018-02-03T19:34:34.582Z,100190
2018-02-03T19:37:00.701Z,100193
2018-02-03T19:39:26.783Z,100192
2018-02-03T19:41:52.874Z,100196
2018-02-03T19:44:18.965Z,100200
2018-02-03T19:46:45.783Z,100195
2018-02-03T19:49:11.866Z,100197
2018-02-03T19:51:37.942Z,100199
2018-02-03T19:54:04.021Z,100202
2018-02-03T19:56:30.110Z,100208
2018-02-03T19:58:56.933Z,100203
2018-02-03T20:01:23.006Z,100205
2018-02-03T20:03:49.084Z,100209
2018-02-03T20:06:15.165Z,100214
2018-02-03T20:08:41.383Z,100210
2018-02-03T20:11:07.483Z,100200
2018-02-03T20:13:34.293Z,100211
2018-02-03T20:16:00.377Z,100218
2018-02-03T20:18:26.454Z,100214
2018-02-03T20:20:52.521Z,100214
2018-02-03T20:23:18.605Z,100218
2018-02-03T20:25:44.701Z,100229
2018-02-03T20:28:10.773Z,100229
2018-02-03T20:30:36.849Z,100229
2018-02-03T20:33:02.939Z,100238
2018-02-03T20:35:29.078Z,100240
2018-02-03T20:37:55.142Z,100231
2018-02-03T20:40:21.234Z,100244
2018-02-03T20:42:47.309Z,100242
2018-02-03T20:45:13.394Z,100242
2018-02-03T20:47:39.502Z,100244
2018-02-03T20:50:05.573Z,100252
2018-02-03T20:52:31.641Z,100250
2018-02-03T20:54:57.742Z,100241
2018-02-03T20:57:24.781Z,100253
2018-02-03T20:59:50.852Z,100255
2018-02-03T21:02:16.929Z,100259
2018-02-03T21:04:43.008Z,100255
2018-02-03T21:07:09.102Z,100270
2018-02-03T21:09:35.172Z,100271
2018-02-03T21:12:01.601Z,100273
2018-02-03T21:14:27.670Z,100280
2018-02-03T21:16:53.746Z,100277
2018-02-03T21:19:19.834Z,100279
2018-02-03T21:21:46.657Z,100287
2018-02-03T21:24:13.504Z,100285
2018-02-03T21:26:40.393Z,100294
2018-02-03T21:29:06.465Z,100292
2018-02-03T21:31:33.290Z,100298
2018-02-03T21:33:59.367Z,100305
2018-02-03T21:36:25.441Z,100301
2018-02-03T21:38:51.525Z,100318
2018-02-03T21:41:17.589Z,100313
2018-02-03T21:43:43.666Z,100319
2018-02-03T21:46:09.753Z,100319
2018-02-03T21:48:35.814Z,100337
2018-02-03T21:51:01.918Z,100332
2018-02-03T21:53:28.041Z,100340
2018-02-03T21:55:54.301Z,100338
2018-02-03T21:58:20.381Z,100337
2018-02-03T22:00:46.454Z,100341
2018-02-03T22:03:12.554Z,100352
2018-02-03T22:05:39.364Z,100333
2018-02-03T22:08:05.452Z,100335
2018-02-03T22:10:31.526Z,100339
2018-02-03T22:12:57.607Z,100344
2018-02-03T22:15:23.712Z,100357
2018-02-03T22:17:49.802Z,100364
2018-02-03T22:20:15.889Z,100364
2018-02-03T22:22:41.973Z,100368
2018-02-03T22:25:08.793Z,100372
2018-02-03T22:27:35.325Z,100372
2018-02-03T22:30:01.397Z,100379
2018-02-03T22:32:27.461Z,100383
2018-02-03T22:34:53.523Z,100395
2018-02-03T22:37:20.337Z,100386
2018-02-03T22:39:46.423Z,100392
2018-02-03T22:42:12.509Z,100406
2018-02-03T22:44:39.341Z,100411
2018-02-03T22:47:05.469Z,100404
2018-02-03T22:49:31.754Z,100402
2018-02-03T22:51:57.837Z,100399
2018-02-03T22:54:23.910Z,100411
2018-02-03T22:56:50.006Z,100408
2018-02-03T22:59:16.090Z,100402
2018-02-03T23:01:42.177Z,100410
2018-02-03T23:04:08.261Z,100416
2018-02-03T23:06:34.697Z,100408
2018-02-03T23:09:00.779Z,100416
2018-02-03T23:11:26.863Z,100414
2018-02-03T23:13:52.946Z,100414
2018-02-03T23:16:19.037Z,100414
2018-02-03T23:18:45.120Z,100417
2018-02-03T23:21:11.944Z,100418
2018-02-03T23:23:38.030Z,100448
2018-02-03T23:26:04.109Z,100426
2018-02-03T23:28:30.188Z,100434
2018-02-03T23:30:56.270Z,100427
2018-02-03T23:33:22.349Z,100431
2018-02-03T23:35:48.417Z,100433
2018-02-03T23:38:14.501Z,100442
2018-02-03T23:40:40.581Z,100439
2018-02-03T23:43:06.658Z,100437
2018-02-03T23:45:32.734Z,100441
2018-02-03T23:47:58.822Z,100442
2018-02-03T23:50:25.873Z,100445
2018-02-03T23:52:52.698Z,100447
2018-02-03T23:55:18.785Z,100452
2018-02-03T23:57:44.865Z,100454
